createdAt,value
2019-04-25T00:12:33.471Z,96643.14
2019-04-25T00:27:44.357Z,96628.73
2019-04-25T00:42:52.228Z,96634.23
2019-04-25T00:58:01.378Z,96642.86
2019-04-25T01:13:11.339Z,96649.34
2019-04-25T01:28:19.172Z,96642.23
2019-04-25T01:43:29.124Z,96653.78
2019-04-25T01:58:36.808Z,96659.17
2019-04-25T02:13:44.111Z,96634.02
2019-04-25T02:28:50.995Z,96614.04
2019-04-25T02:44:01.387Z,96610.97
2019-04-25T02:59:09.118Z,96604.23
2019-04-25T03:14:17.462Z,96620.15
2019-04-25T03:29:26.128Z,96618.98
2019-04-25T03:44:33.975Z,96636.69
2019-04-25T03:59:40.864Z,96646.08
2019-04-25T04:14:47.787Z,96646.42
2019-04-25T04:29:54.822Z,96658.20
2019-04-25T04:45:03.550Z,96640.17
2019-04-25T05:00:11.129Z,96653.33
2019-04-25T05:15:19.435Z,96668.90
2019-04-25T05:30:37.970Z,96653.39
2019-04-25T05:45:44.601Z,96645.11
2019-04-25T06:00:52.382Z,96640.20
2019-04-25T06:16:01.012Z,96642.95
2019-04-25T06:31:10.366Z,96650.76
2019-04-25T06:46:36.505Z,96657.42
2019-04-25T07:01:44.048Z,96658.84
2019-04-25T07:16:51.092Z,96650.62
2019-04-25T07:32:07.893Z,96669.68
2019-04-25T07:47:19.886Z,96668.63
2019-04-25T08:02:28.108Z,96657.02
2019-04-25T08:17:46.985Z,96667.52
2019-04-25T08:32:54.482Z,96677.19
2019-04-25T08:48:03.714Z,96687.66
2019-04-25T09:03:17.645Z,96683.69
2019-04-25T09:18:25.910Z,96688.88
2019-04-25T09:33:46.725Z,96679.73
2019-04-25T09:48:54.303Z,96673.62
2019-04-25T10:04:02.219Z,96664.50
2019-04-25T10:19:09.243Z,96662.22
2019-04-25T10:34:16.345Z,96647.98
2019-04-25T10:49:23.658Z,96638.95
2019-04-25T11:04:33.086Z,96620.51
2019-04-25T11:19:40.107Z,96619.45
2019-04-25T11:34:48.878Z,96638.33
2019-04-25T11:49:56.936Z,96621.86
2019-04-25T12:05:05.121Z,96602.23
2019-04-25T12:20:14.131Z,96613.64
2019-04-25T12:35:21.130Z,96598.27
2019-04-25T12:50:28.677Z,96627.51
2019-04-25T13:05:35.829Z,96611.05
2019-04-25T13:20:43.887Z,96626.06
2019-04-25T13:35:57.627Z,96624.80
2019-04-25T13:51:05.529Z,96620.48
2019-04-25T14:06:13.693Z,96621.00
2019-04-25T14:21:23.797Z,96615.36
2019-04-25T14:36:30.756Z,96622.65
2019-04-25T14:51:38.551Z,96617.22
2019-04-25T15:06:45.678Z,96617.55
2019-04-25T15:21:52.742Z,96604.39
2019-04-25T15:37:06.763Z,96596.09
2019-04-25T15:52:15.214Z,96592.83
2019-04-25T16:07:22.358Z,96584.55
2019-04-25T16:22:30.222Z,96577.27
2019-04-25T16:37:37.958Z,96584.69
2019-04-25T16:52:45.461Z,96581.03
2019-04-25T17:07:52.021Z,96588.50
2019-04-25T17:22:59.492Z,96586.77
2019-04-25T17:38:19.393Z,96594.77
2019-04-25T17:53:26.500Z,96590.98
2019-04-25T18:08:33.405Z,96610.06
2019-04-25T18:23:53.433Z,96619.03
2019-04-25T18:39:14.787Z,96631.73
2019-04-25T18:54:23.708Z,96638.14
2019-04-25T19:09:30.693Z,96643.45
2019-04-25T19:24:37.904Z,96667.48
2019-04-25T19:39:47.284Z,96676.69
2019-04-25T19:54:56.664Z,96689.62
2019-04-25T20:10:05.926Z,96701.30
2019-04-25T20:25:13.275Z,96703.94
2019-04-25T20:40:20.081Z,96707.35
2019-04-25T20:55:26.949Z,96698.86
2019-04-25T21:10:35.505Z,96703.78
2019-04-25T21:25:43.382Z,96703.73
2019-04-25T21:40:57.909Z,96705.73
2019-04-25T21:56:05.472Z,96697.77
2019-04-25T22:11:13.354Z,96704.60
2019-04-25T22:26:20.775Z,96700.14
2019-04-25T22:41:29.937Z,96720.28
2019-04-25T22:56:36.794Z,96719.72
2019-04-25T23:11:44.438Z,96703.37
2019-04-25T23:26:59.381Z,96689.81
2019-04-25T23:42:06.138Z,96691.55
2019-04-25T23:57:15.419Z,96680.27
